RODA DE TER (Osona)





Hora UTC 16:05
Temperatura 16.5 ºC
Humedad 66.3 %
Pluja 0.0 mm
Velocidad viento 20.0 km/h
Dirección viento ESE

Datos diarios 2024-04-16



Hora UTC (invierno +1h; verano +2h)
Temperatura (ºC) Humedad (%) Velocidad viento (km/h) Precipitación (mm)
Hora UTC Aire Humedad Vel. Dir. Vel. Max Dir. Intent. máx 5 min.
00:05 8.3 85.6 0.8 E 0.8 E 0.0
00:10 7.9 87.6 1.8 NE 4.2 NE 0.0
00:15 8.0 88.4 1.1 NE 3.2 NE 0.0
00:20 8.2 87.0 0.1 NE 1.8 NE 0.0
00:25 8.4 86.9 0.4 E 2.5 E 0.0
00:30 8.0 87.2 1.8 ESE 3.9 ESE 0.0
00:35 8.2 88.8 1.1 E 2.1 E 0.0
00:40 8.3 88.7 1.1 E 3.2 E 0.0
00:45 8.4 87.8 0.1 E 1.1 E 0.0
00:50 8.2 88.5 0.0 NNE 0.0 E 0.0
00:55 8.4 86.8 0.0 NNE 0.0 E 0.0
01:00 8.3 87.0 0.1 E 1.8 E 0.0
01:05 8.3 87.9 2.3 NNE 6.4 N 0.0
01:10 8.3 87.6 3.3 NNE 4.6 NNE 0.0
01:15 8.4 86.7 3.6 NNE 4.9 NNE 0.0
01:20 8.3 86.0 2.2 NNE 3.5 NNE 0.0
01:25 8.0 87.2 2.7 NNE 5.3 N 0.0
01:30 7.7 87.5 3.6 NNE 6.4 NNE 0.0
01:35 7.3 88.9 2.8 NE 5.3 E 0.0
01:40 7.5 90.9 6.6 SE 8.8 SE 0.0
01:45 8.1 89.0 5.4 SE 7.4 SE 0.0
01:50 8.2 85.3 3.1 ESE 6.4 SE 0.0
01:55 7.4 87.1 0.2 ESE 1.8 ESE 0.0
02:00 6.8 88.7 0.1 SE 1.8 SE 0.0
02:05 6.8 91.2 0.8 ESE 4.6 ENE 0.0
02:10 7.6 90.3 2.7 ENE 3.9 ENE 0.0
02:15 7.4 86.7 1.2 ENE 3.9 ENE 0.0
02:20 6.7 88.4 0.0 NNE 0.0 ENE 0.0
02:25 6.5 90.5 0.0 NNE 0.0 ENE 0.0
02:30 6.5 90.6 0.3 ENE 1.8 ENE 0.0
02:35 6.4 90.3 0.3 ENE 1.4 ENE 0.0
02:40 6.0 90.6 0.0 NNE 0.0 ENE 0.0
02:45 6.0 91.6 2.0 NNE 6.4 NNE 0.0
02:50 6.3 92.8 4.4 N 7.1 N 0.0
02:55 6.1 91.2 3.5 NNE 6.0 NNE 0.0
03:00 5.4 90.3 1.8 NNE 4.9 NNE 0.0
03:05 5.4 93.2 2.7 NNE 5.3 NNE 0.0
03:10 5.9 94.4 1.0 NNE 2.8 NNE 0.0
03:15 5.8 93.5 0.0 NNE 0.0 NNE 0.0
03:20 5.8 93.6 0.0 NNE 1.1 NNE 0.0
03:25 5.9 93.3 0.0 NNE 0.0 NNE 0.0
03:30 5.7 92.3 0.0 NNE 0.0 NNE 0.0
03:35 5.9 93.1 0.9 ENE 3.5 E 0.0
03:40 5.5 92.9 3.4 ESE 5.3 ESE 0.0
03:45 5.8 95.3 3.4 ESE 5.3 ESE 0.0
03:50 6.0 95.7 6.7 SSE 8.5 S 0.0
03:55 6.4 95.7 4.2 SSE 8.8 SSE 0.0
04:00 6.6 95.1 0.2 S 1.8 S 0.0
04:05 6.4 93.6 1.4 SW 3.9 SW 0.0
04:10 6.6 93.4 0.6 SW 2.8 SW 0.0
04:15 6.0 90.2 4.3 N 7.4 N 0.0
04:20 5.7 92.5 4.1 NNE 6.7 NNE 0.0
04:25 5.3 92.0 3.4 NNE 6.4 NNE 0.0
04:30 5.2 92.8 5.2 NNE 6.4 NNE 0.0
04:35 5.5 94.5 3.1 NE 5.6 NE 0.0
04:40 5.3 93.6 1.0 NE 2.5 NE 0.0
04:45 4.8 93.3 2.2 NE 3.2 NE 0.0
04:50 4.6 93.1 2.4 NE 4.6 NE 0.0
04:55 4.6 94.2 0.0 NE 1.1 NE 0.0
05:00 4.9 95.4 0.0 NE 1.1 NE 0.0
05:05 4.8 94.8 3.3 NNE 7.4 NNE 0.0
05:10 4.9 95.1 3.3 NNE 7.8 N 0.0
05:15 5.1 95.7 0.1 NNE 1.1 NNE 0.0
05:20 4.8 94.6 0.0 ENE 3.9 ENE 0.0
05:25 5.0 94.8 1.2 ENE 5.3 ENE 0.0
05:30 4.7 93.9 5.8 ESE 9.2 SE 0.0
05:35 5.2 95.5 3.1 N 6.7 SE 0.0
05:40 5.1 94.9 0.3 N 2.5 N 0.0
05:45 5.3 94.9 3.1 N 6.0 N 0.0
05:50 5.6 94.8 2.2 N 4.2 N 0.0
05:55 5.9 93.8 2.4 N 3.9 NNE 0.0
06:00 5.8 93.0 0.5 NNE 2.8 NNE 0.0
06:05 5.7 92.9 0.9 NNE 2.1 NNE 0.0
06:10 5.7 93.5 0.2 NNE 2.5 NNE 0.0
06:15 6.1 94.2 0.1 NNE 1.4 NNE 0.0
06:20 6.4 94.1 0.5 NNE 2.1 NNE 0.0
06:25 6.6 94.0 0.5 NNE 2.1 NNE 0.0
06:30 6.8 93.5 0.0 NNE 1.4 NNE 0.0
06:35 7.3 92.6 0.1 NNE 1.4 NNE 0.0
06:40 7.7 92.6 0.0 NNE 0.0 NNE 0.0
06:45 8.1 89.5 0.6 N 2.5 NNE 0.0
06:50 8.6 89.1 3.0 N 4.6 N 0.0
06:55 8.7 87.8 0.1 N 2.1 N 0.0
07:00 8.8 87.4 2.8 WSW 5.6 WSW 0.0
07:05 8.9 85.9 3.8 SW 6.7 SW 0.0
07:10 9.2 85.5 4.4 WSW 6.7 WNW 0.0
07:15 9.3 84.2 2.6 SW 7.1 SSW 0.0
07:20 9.5 83.3 2.7 SW 6.0 SSW 0.0
07:25 9.6 81.8 1.0 S 4.9 S 0.0
07:30 9.9 78.2 2.4 W 4.6 SW 0.0
07:35 10.2 74.3 3.2 WSW 7.4 W 0.0
07:40 10.4 72.0 0.7 WNW 4.2 WNW 0.0
07:45 10.7 71.5 2.8 WNW 8.5 W 0.0
07:50 11.1 69.2 5.6 SSW 9.5 SSW 0.0
07:55 11.5 67.5 4.2 S 10.2 SSW 0.0
08:00 11.9 66.3 4.9 S 8.8 SSW 0.0
08:05 12.2 64.3 5.0 SSW 9.9 SSW 0.0
08:10 12.8 62.6 7.0 W 10.6 W 0.0
08:15 12.9 62.4 4.5 SW 9.9 WSW 0.0
08:20 13.2 61.8 5.9 SSW 10.2 SW 0.0
08:25 13.2 62.1 4.6 SSW 9.9 S 0.0
08:30 13.1 62.4 5.2 S 8.5 S 0.0
08:35 13.0 62.5 2.9 S 5.6 SSW 0.0
08:40 13.2 62.2 4.1 SE 10.2 SSE 0.0
08:45 13.4 62.4 4.0 SSE 8.1 SW 0.0
08:50 13.6 60.1 3.4 SW 8.1 SSW 0.0
08:55 13.9 58.8 2.1 WSW 6.4 WSW 0.0
09:00 13.9 59.3 2.1 SSW 5.6 S 0.0
09:05 13.9 60.1 5.0 WSW 11.6 WSW 0.0
09:10 14.0 57.9 1.6 WSW 4.9 W 0.0
09:15 14.0 60.6 1.9 N 6.4 W 0.0
09:20 14.2 59.2 2.9 WNW 5.6 WNW 0.0
09:25 14.1 59.0 0.5 NW 3.5 NW 0.0
09:30 14.2 57.8 0.5 NNW 3.5 NNW 0.0
09:35 14.8 56.7 1.6 NNW 4.2 NE 0.0
09:40 15.1 55.8 0.2 SW 1.8 W 0.0
09:45 16.0 56.2 3.6 SSE 8.5 S 0.0
09:50 16.6 53.7 6.4 SSW 10.2 SSE 0.0
09:55 16.1 53.9 4.4 SSE 8.5 S 0.0
10:00 15.9 54.6 1.3 W 4.6 SSW 0.0
10:05 16.2 54.1 2.3 W 7.4 WSW 0.0
10:10 16.5 53.3 2.0 WNW 5.6 WNW 0.0
10:15 16.9 53.5 7.1 S 11.3 S 0.0
10:20 17.4 52.3 7.1 SSE 13.8 SSW 0.0
10:25 17.2 50.9 5.6 SW 11.6 SW 0.0
10:30 17.2 51.7 4.5 SW 10.2 SW 0.0
10:35 17.4 51.4 6.2 S 10.6 SW 0.0
10:40 17.5 50.9 3.6 WSW 9.9 SSW 0.0
10:45 17.9 50.7 7.3 SE 12.7 S 0.0
10:50 18.1 49.0 6.4 E 13.1 E 0.0
10:55 18.5 49.5 2.5 NE 7.8 ENE 0.0
11:00 18.9 49.0 4.5 SSE 13.1 SSW 0.0
11:05 18.8 48.5 6.5 SSE 12.4 S 0.0
11:10 18.1 48.3 2.3 SE 6.7 NNE 0.0
11:15 18.0 49.5 2.8 NNE 6.4 N 0.0
11:20 18.1 48.8 3.5 SSE 10.2 S 0.0
11:25 18.7 48.5 6.3 S 16.6 SSW 0.0
11:30 19.0 47.2 3.4 S 13.4 S 0.0
11:35 18.7 48.6 7.4 NW 13.8 NW 0.0
11:40 19.0 47.7 7.3 WNW 13.8 NW 0.0
11:45 19.0 48.4 10.3 NW 17.3 NW 0.0
11:50 18.7 48.8 6.3 NNW 13.4 NW 0.0
11:55 18.9 47.8 4.7 WNW 9.5 W 0.0
12:00 19.0 47.3 4.3 ESE 9.5 ESE 0.0
12:05 19.9 46.2 5.2 WSW 11.3 NNW 0.0
12:10 20.2 46.8 6.8 WNW 16.2 WNW 0.0
12:15 20.3 46.1 6.1 SSE 15.9 SE 0.0
12:20 20.5 45.2 3.0 E 7.1 NE 0.0
12:25 20.7 44.7 2.4 NNW 7.1 N 0.0
12:30 20.7 45.6 5.9 NNW 13.4 NNW 0.0
12:35 20.4 44.6 7.0 NW 11.3 NNW 0.0
12:40 20.1 46.1 4.9 NW 13.4 WSW 0.0
12:45 20.6 46.0 6.6 WNW 14.8 WNW 0.0
12:50 20.5 44.4 5.2 WNW 12.4 W 0.0
12:55 20.8 45.0 13.8 NW 24.3 WNW 0.0
13:00 20.9 43.5 9.2 NW 17.6 NW 0.0
13:05 21.4 41.6 11.7 W 22.9 SW 0.0
13:10 21.6 38.7 16.0 WNW 24.7 WNW 0.0
13:15 21.6 37.7 14.4 WSW 19.4 WSW 0.0
13:20 21.8 36.9 15.8 SW 26.8 SW 0.0
13:25 22.0 36.2 14.4 WSW 22.2 WSW 0.0
13:30 21.5 37.0 13.0 W 21.5 W 0.0
13:35 21.6 37.9 14.4 W 20.8 W 0.0
13:40 21.4 37.9 7.0 W 16.9 WSW 0.0
13:45 21.8 37.8 7.0 SSW 13.1 S 0.0
13:50 21.8 37.9 9.3 W 16.2 WSW 0.0
13:55 22.3 36.5 13.0 SW 28.9 SSW 0.0
14:00 22.0 36.0 7.8 SSW 15.5 SW 0.0
14:05 21.8 36.9 1.8 SSW 8.5 SW 0.0
14:10 22.1 36.9 5.8 SW 22.9 SW 0.0
14:15 22.5 35.8 14.5 W 22.9 WNW 0.0
14:20 22.8 34.9 6.4 SW 16.6 SW 0.0
14:25 22.5 35.9 5.1 WNW 11.6 W 0.0
14:30 22.7 34.6 13.6 WSW 28.2 WSW 0.0
14:35 22.2 34.7 20.1 SW 31.8 SW 0.0
14:40 22.1 35.7 11.2 SSW 18.0 S 0.0
14:45 21.9 36.1 18.4 SW 30.3 SW 0.0
14:50 21.3 39.2 17.0 SSW 26.1 SW 0.0
14:55 21.3 42.2 17.8 S 31.4 S 0.0
15:00 21.8 41.5 17.1 S 29.3 S 0.0
15:05 21.6 41.4 18.1 S 27.9 S 0.0
15:10 21.5 43.4 22.1 S 28.2 S 0.0
15:15 21.3 44.6 20.0 S 28.2 S 0.0
15:20 21.4 44.1 14.5 S 22.2 S 0.0
15:25 21.6 43.6 15.8 S 22.2 SSE 0.0
15:30 20.6 52.5 20.8 SE 32.5 S 0.0
15:35 20.0 54.4 19.3 SE 26.8 SE 0.0
15:40 20.2 53.5 20.7 ESE 33.5 SE 0.0
15:45 19.0 57.0 22.4 ESE 39.5 SE 0.0
15:50 18.1 60.2 20.1 ESE 38.5 SE 0.0
15:55 17.3 63.1 23.7 ESE 36.3 ESE 0.0
16:00 16.7 65.4 21.9 ESE 32.5 ESE 0.0
16:05 16.5 66.3 20.0 ESE 34.6 ESE 0.0
Máxima 23.2 95.7 23.7 ESE 39.5 SE 0.0
Mínima 4.4 34.6
Total 0.0